createdAt,value
2022-08-11T00:01:13.503Z,98844.59
2022-08-11T00:03:50.736Z,98845.44
2022-08-11T00:06:28.047Z,98838.91
2022-08-11T00:08:56.005Z,98842.69
2022-08-11T00:11:38.390Z,98844.59
2022-08-11T00:14:14.435Z,98845.63
2022-08-11T00:16:42.123Z,98847.84
2022-08-11T00:19:11.429Z,98844.47
2022-08-11T00:22:04.382Z,98842.72
2022-08-11T00:24:50.907Z,98843.81
2022-08-11T00:27:20.566Z,98840.28
2022-08-11T00:29:56.342Z,98834.22
2022-08-11T00:32:24.933Z,98837.06
2022-08-11T00:35:54.865Z,98840.94
2022-08-11T00:37:50.656Z,98846.91
2022-08-11T00:40:30.291Z,98845.91
2022-08-11T00:43:20.416Z,98834.03
2022-08-11T00:46:33.271Z,98845.59
2022-08-11T00:49:43.101Z,98847.97
2022-08-11T00:52:46.116Z,98845.66
2022-08-11T00:55:33.247Z,98847.22
2022-08-11T00:58:21.764Z,98852.41
2022-08-11T01:00:58.398Z,98845.75
2022-08-11T01:03:40.664Z,98846.28
2022-08-11T01:06:42.597Z,98835.44
2022-08-11T01:09:45.405Z,98845.41
2022-08-11T01:12:15.672Z,98850.25
2022-08-11T01:15:14.979Z,98848.81
2022-08-11T01:18:10.625Z,98853.44
2022-08-11T01:20:49.490Z,98850.94
2022-08-11T01:23:33.185Z,98849.09
2022-08-11T01:26:18.326Z,98850.25
2022-08-11T01:29:15.126Z,98851.28
2022-08-11T01:32:12.560Z,98853.38
2022-08-11T01:35:05.753Z,98856.13
2022-08-11T01:37:54.290Z,98853.50
2022-08-11T01:40:28.204Z,98854.38
2022-08-11T01:43:35.952Z,98844.59
2022-08-11T01:46:21.257Z,98846.44
2022-08-11T01:50:05.160Z,98846.59
2022-08-11T01:52:09.591Z,98842.19
2022-08-11T01:55:15.391Z,98852.22
2022-08-11T01:57:56.554Z,98854.09
2022-08-11T02:00:30.416Z,98859.81
2022-08-11T02:03:31.198Z,98863.03
2022-08-11T02:06:37.625Z,98860.66
2022-08-11T02:09:30.063Z,98853.88
2022-08-11T02:12:10.112Z,98858.72
2022-08-11T02:15:15.389Z,98861.22
2022-08-11T02:17:50.671Z,98855.88
2022-08-11T02:20:57.328Z,98859.34
2022-08-11T02:24:04.879Z,98857.59
2022-08-11T02:26:47.176Z,98866.44
2022-08-11T02:29:25.649Z,98859.53
2022-08-11T02:32:29.933Z,98858.81
2022-08-11T02:35:19.850Z,98863.63
2022-08-11T02:38:00.642Z,98858.78
2022-08-11T02:40:34.003Z,98860.72
2022-08-11T02:43:12.486Z,98861.81
2022-08-11T02:46:06.133Z,98857.16
2022-08-11T02:49:06.282Z,98858.09
2022-08-11T02:51:55.195Z,98858.44
2022-08-11T02:54:29.632Z,98856.50
2022-08-11T02:57:02.385Z,98856.84
2022-08-11T02:59:59.439Z,98857.41
2022-08-11T03:02:31.509Z,98864.09
2022-08-11T03:05:01.401Z,98864.91
2022-08-11T03:07:35.095Z,98868.91
2022-08-11T03:10:15.213Z,98862.84
2022-08-11T03:13:22.498Z,98865.63
2022-08-11T03:16:30.741Z,98859.94
2022-08-11T03:19:16.083Z,98859.78
2022-08-11T03:22:02.567Z,98861.53
2022-08-11T03:24:44.906Z,98857.41
2022-08-11T03:27:28.066Z,98866.50
2022-08-11T03:30:15.276Z,98863.66
2022-08-11T03:33:23.673Z,98863.72
2022-08-11T03:36:25.779Z,98867.28
2022-08-11T03:39:03.864Z,98858.75
2022-08-11T03:42:02.087Z,98860.56
2022-08-11T03:45:02.278Z,98855.84
2022-08-11T03:47:52.284Z,98862.31
2022-08-11T03:50:42.262Z,98857.97
2022-08-11T03:53:50.885Z,98862.78
2022-08-11T03:56:36.298Z,98869.25
2022-08-11T03:59:06.128Z,98864.13
2022-08-11T04:01:50.719Z,98868.66
2022-08-11T04:04:55.370Z,98869.66
2022-08-11T04:07:31.218Z,98873.41
2022-08-11T04:10:33.567Z,98867.50
2022-08-11T04:13:34.056Z,98870.84
2022-08-11T04:16:11.728Z,98870.03
2022-08-11T04:18:54.461Z,98865.53
2022-08-11T04:21:49.850Z,98866.63
2022-08-11T04:24:39.751Z,98861.22
2022-08-11T04:27:37.047Z,98865.78
2022-08-11T04:30:17.565Z,98865.19
2022-08-11T04:33:03.152Z,98863.84
2022-08-11T04:35:48.585Z,98862.09
2022-08-11T04:38:35.908Z,98865.97
2022-08-11T04:41:20.940Z,98867.16
2022-08-11T04:44:11.293Z,98858.25
2022-08-11T04:47:08.157Z,98857.03
2022-08-11T04:50:08.671Z,98857.66
2022-08-11T04:53:13.209Z,98862.22
2022-08-11T04:56:17.831Z,98862.84
2022-08-11T04:59:19.564Z,98861.75
2022-08-11T05:01:49.265Z,98856.50
2022-08-11T05:04:50.328Z,98860.72
2022-08-11T05:07:20.047Z,98864.94
2022-08-11T05:09:46.724Z,98868.44
2022-08-11T05:12:31.927Z,98866.88
2022-08-11T05:15:18.880Z,98864.91
2022-08-11T05:18:28.128Z,98857.19
2022-08-11T05:21:16.671Z,98875.41
2022-08-11T05:24:07.818Z,98870.41
2022-08-11T05:27:04.397Z,98873.88
2022-08-11T05:29:58.937Z,98867.63
2022-08-11T05:33:02.072Z,98864.91
2022-08-11T05:36:02.163Z,98867.63
2022-08-11T05:38:52.992Z,98868.69
2022-08-11T05:41:42.256Z,98874.81
2022-08-11T05:44:29.711Z,98862.63
2022-08-11T05:47:16.084Z,98872.88
2022-08-11T05:50:09.117Z,98869.69
2022-08-11T05:53:04.419Z,98869.66
2022-08-11T05:56:01.952Z,98869.06
2022-08-11T05:58:42.405Z,98877.63
2022-08-11T06:01:12.023Z,98873.25
2022-08-11T06:04:09.284Z,98869.91
2022-08-11T06:06:45.155Z,98870.75
2022-08-11T06:09:14.599Z,98870.41
2022-08-11T06:11:44.977Z,98872.34
2022-08-11T06:14:13.316Z,98876.97
2022-08-11T06:16:42.705Z,98878.69
2022-08-11T06:19:10.473Z,98877.69
2022-08-11T06:21:38.333Z,98874.88
2022-08-11T06:24:12.504Z,98878.53
2022-08-11T06:27:11.064Z,98881.16
2022-08-11T06:29:54.913Z,98877.81
2022-08-11T06:32:35.366Z,98868.16
2022-08-11T06:35:13.138Z,98879.81
2022-08-11T06:38:06.406Z,98879.69
2022-08-11T06:40:36.236Z,98879.00
2022-08-11T06:43:19.900Z,98885.81
2022-08-11T06:46:08.165Z,98891.03
2022-08-11T06:48:39.177Z,98886.63
2022-08-11T06:51:12.767Z,98882.25
2022-08-11T06:54:03.893Z,98880.47
2022-08-11T06:57:26.212Z,98882.81
2022-08-11T07:00:03.480Z,98878.94
2022-08-11T07:02:38.011Z,98880.19
2022-08-11T07:05:25.418Z,98877.59
2022-08-11T07:08:51.274Z,98872.78
2022-08-11T07:11:48.287Z,98883.28
2022-08-11T07:14:44.037Z,98885.13
2022-08-11T07:17:17.387Z,98882.63
2022-08-11T07:20:09.313Z,98885.94
2022-08-11T07:22:55.715Z,98881.88
2022-08-11T07:25:43.475Z,98877.91
2022-08-11T07:28:34.627Z,98885.19
2022-08-11T07:31:14.056Z,98882.78
2022-08-11T07:34:07.859Z,98880.00
2022-08-11T07:36:45.930Z,98875.16
2022-08-11T07:39:21.098Z,98883.75
2022-08-11T07:41:50.168Z,98876.72
2022-08-11T07:44:17.915Z,98885.06
2022-08-11T07:47:07.248Z,98873.59
2022-08-11T07:49:57.945Z,98882.63
2022-08-11T07:52:37.247Z,98875.56
2022-08-11T07:55:08.583Z,98875.69
2022-08-11T07:58:16.371Z,98874.69
2022-08-11T08:01:22.387Z,98871.66
2022-08-11T08:04:09.568Z,98865.06
2022-08-11T08:06:55.377Z,98865.06
2022-08-11T08:09:42.908Z,98860.44
2022-08-11T08:12:28.746Z,98862.34
2022-08-11T08:15:15.527Z,98860.47
2022-08-11T08:18:20.709Z,98853.72
2022-08-11T08:20:44.287Z,98850.41
2022-08-11T08:23:11.721Z,98851.09
2022-08-11T08:25:41.212Z,98858.44
2022-08-11T08:28:15.550Z,98849.28
2022-08-11T08:30:55.261Z,98849.38
2022-08-11T08:33:31.345Z,98856.50
2022-08-11T08:36:15.021Z,98839.97
2022-08-11T08:38:47.068Z,98845.44
2022-08-11T08:41:19.559Z,98852.69
2022-08-11T08:43:51.586Z,98848.53
2022-08-11T08:46:25.513Z,98850.72
2022-08-11T08:48:53.371Z,98840.16
2022-08-11T08:52:02.526Z,98846.41
2022-08-11T08:54:28.871Z,98834.50
2022-08-11T08:56:56.746Z,98840.34
2022-08-11T08:59:26.801Z,98846.22
2022-08-11T09:02:14.123Z,98842.06
2022-08-11T09:04:44.545Z,98850.31
2022-08-11T09:07:23.405Z,98840.69
2022-08-11T09:09:56.842Z,98852.69
2022-08-11T09:12:36.096Z,98839.31
2022-08-11T09:15:09.207Z,98840.28
2022-08-11T09:17:41.415Z,98844.50
2022-08-11T09:20:12.731Z,98833.28
2022-08-11T09:26:08.866Z,98838.03
2022-08-11T09:28:36.806Z,98836.06
2022-08-11T09:31:06.611Z,98831.31
2022-08-11T09:33:34.005Z,98836.41
2022-08-11T09:36:24.006Z,98823.34
2022-08-11T09:39:11.813Z,98815.78
2022-08-11T09:42:00.994Z,98810.25
2022-08-11T09:44:48.554Z,98813.34
2022-08-11T09:47:19.005Z,98815.28
2022-08-11T09:49:46.809Z,98809.72
2022-08-11T09:52:15.286Z,98806.53
2022-08-11T09:54:48.284Z,98804.50
2022-08-11T09:57:37.526Z,98795.00
2022-08-11T10:00:13.275Z,98796.50
2022-08-11T10:02:45.123Z,98805.88
2022-08-11T10:05:34.335Z,98796.13
2022-08-11T10:08:02.062Z,98798.03
2022-08-11T10:10:32.498Z,98784.50
2022-08-11T10:13:05.227Z,98791.63
2022-08-11T10:16:03.554Z,98783.63
2022-08-11T10:18:49.205Z,98785.59
2022-08-11T10:21:40.805Z,98782.19
2022-08-11T10:27:43.169Z,98792.06
2022-08-11T10:30:44.619Z,98778.19
2022-08-11T10:33:37.582Z,98765.44
2022-08-11T10:36:16.313Z,98765.16
2022-08-11T10:38:45.778Z,98764.19
2022-08-11T10:42:03.453Z,98770.72
2022-08-11T10:44:27.346Z,98748.91
2022-08-11T10:47:12.976Z,98748.78
2022-08-11T10:49:40.183Z,98765.25
2022-08-11T10:52:26.006Z,98772.59
2022-08-11T10:55:11.691Z,98750.91
2022-08-11T10:58:04.768Z,98751.78
2022-08-11T11:00:33.251Z,98750.91
2022-08-11T11:03:22.329Z,98750.88
2022-08-11T11:06:27.185Z,98749.38
2022-08-11T11:08:57.621Z,98738.78
2022-08-11T11:11:52.314Z,98736.25
2022-08-11T11:14:46.683Z,98736.13
2022-08-11T11:17:47.328Z,98728.88
2022-08-11T11:20:37.463Z,98726.16
2022-08-11T11:23:28.015Z,98711.66
2022-08-11T11:26:10.435Z,98725.13
2022-08-11T11:29:15.253Z,98710.53
2022-08-11T11:31:51.636Z,98711.03
2022-08-11T11:35:06.217Z,98705.78
2022-08-11T11:37:36.625Z,98717.44
2022-08-11T11:40:10.722Z,98711.03
2022-08-11T11:42:40.537Z,98697.53
2022-08-11T11:45:09.890Z,98700.44
2022-08-11T11:47:52.531Z,98696.09
2022-08-11T11:50:46.761Z,98705.63
2022-08-11T11:53:14.036Z,98692.25
2022-08-11T11:55:41.992Z,98699.22
2022-08-11T11:58:28.277Z,98680.72
2022-08-11T12:01:15.330Z,98679.91
2022-08-11T12:03:45.924Z,98679.47
2022-08-11T12:06:14.305Z,98691.00
2022-08-11T12:08:42.898Z,98673.50
2022-08-11T12:11:30.488Z,98681.31
2022-08-11T12:14:00.539Z,98685.53
2022-08-11T12:16:33.499Z,98674.59
2022-08-11T12:19:11.816Z,98672.84
2022-08-11T12:22:00.926Z,98672.47
2022-08-11T12:24:51.274Z,98671.38
2022-08-11T12:27:25.019Z,98674.28
2022-08-11T12:30:11.231Z,98678.28
2022-08-11T12:32:40.529Z,98664.88
2022-08-11T12:35:08.445Z,98672.97
2022-08-11T12:37:37.310Z,98664.59
2022-08-11T12:40:49.595Z,98671.00
2022-08-11T12:43:39.491Z,98662.94
2022-08-11T12:46:10.500Z,98655.06
2022-08-11T12:49:03.165Z,98657.50
2022-08-11T12:52:14.351Z,98661.75
2022-08-11T12:54:49.827Z,98660.97
2022-08-11T12:57:41.367Z,98660.34
2022-08-11T13:00:28.226Z,98651.28
2022-08-11T13:03:15.218Z,98633.00
2022-08-11T13:05:47.079Z,98653.31
2022-08-11T13:08:17.110Z,98652.66
2022-08-11T13:11:04.166Z,98652.03
2022-08-11T13:13:54.168Z,98647.47
2022-08-11T13:16:20.599Z,98649.34
2022-08-11T13:18:48.720Z,98647.41
2022-08-11T13:21:20.644Z,98638.31
2022-08-11T13:24:01.179Z,98640.94
2022-08-11T13:26:43.474Z,98636.50
2022-08-11T13:29:23.189Z,98628.66
2022-08-11T13:31:52.124Z,98619.88
2022-08-11T13:34:20.784Z,98623.69
2022-08-11T13:36:52.223Z,98616.06
2022-08-11T13:39:23.918Z,98628.59
2022-08-11T13:41:55.183Z,98625.88
2022-08-11T13:44:25.750Z,98628.59
2022-08-11T13:47:03.854Z,98623.81
2022-08-11T13:49:39.675Z,98618.16
2022-08-11T13:52:12.969Z,98620.22
2022-08-11T13:54:41.234Z,98599.16
2022-08-11T13:57:38.580Z,98609.84
2022-08-11T14:00:13.352Z,98609.25
2022-08-11T14:02:54.669Z,98596.94
2022-08-11T14:05:29.302Z,98593.28
2022-08-11T14:08:02.031Z,98606.22
2022-08-11T14:10:32.848Z,98591.13
2022-08-11T14:13:42.547Z,98609.94
2022-08-11T14:16:26.278Z,98588.63
2022-08-11T14:18:57.648Z,98586.19
2022-08-11T14:21:44.031Z,98585.06
2022-08-11T14:24:13.073Z,98581.56
2022-08-11T14:26:43.444Z,98580.34
2022-08-11T14:29:29.650Z,98575.44
2022-08-11T14:32:02.055Z,98583.00
2022-08-11T14:34:32.009Z,98582.75
2022-08-11T14:37:01.714Z,98574.97
2022-08-11T14:40:02.255Z,98573.38
2022-08-11T14:42:59.363Z,98557.13
2022-08-11T14:45:54.429Z,98579.38
2022-08-11T14:48:26.912Z,98564.75
2022-08-11T14:50:53.997Z,98565.81
2022-08-11T14:53:22.788Z,98572.84
2022-08-11T14:56:09.144Z,98559.34
2022-08-11T14:58:37.674Z,98552.72
2022-08-11T15:01:25.055Z,98554.88
2022-08-11T15:04:31.311Z,98551.38
2022-08-11T15:06:39.642Z,98556.13
2022-08-11T15:09:09.000Z,98558.72
2022-08-11T15:11:55.187Z,98552.53
2022-08-11T15:14:41.354Z,98546.44
2022-08-11T15:17:09.631Z,98540.28
2022-08-11T15:19:59.614Z,98534.00
2022-08-11T15:22:45.092Z,98542.41
2022-08-11T15:25:12.523Z,98534.75
2022-08-11T15:27:59.531Z,98539.28
2022-08-11T15:30:46.017Z,98549.94
2022-08-11T15:33:35.299Z,98545.78
2022-08-11T15:36:24.166Z,98542.47
2022-08-11T15:39:28.056Z,98538.41
2022-08-11T15:42:35.988Z,98538.59
2022-08-11T15:45:26.008Z,98520.63
2022-08-11T15:48:05.054Z,98534.88
2022-08-11T15:50:38.598Z,98527.41
2022-08-11T15:53:14.087Z,98523.06
2022-08-11T15:55:43.529Z,98511.09
2022-08-11T15:58:31.597Z,98528.00
2022-08-11T16:01:20.548Z,98530.47
2022-08-11T16:04:12.505Z,98521.44
2022-08-11T16:06:50.960Z,98522.34
2022-08-11T16:09:23.529Z,98514.75
2022-08-11T16:11:52.047Z,98518.38
2022-08-11T16:14:39.028Z,98520.84
2022-08-11T16:17:09.902Z,98521.78
2022-08-11T16:19:39.785Z,98524.53
2022-08-11T16:22:11.992Z,98517.84
2022-08-11T16:27:04.808Z,98510.91
2022-08-11T16:27:37.133Z,98510.47
2022-08-11T16:30:05.914Z,98503.50
2022-08-11T16:32:34.381Z,98500.25
2022-08-11T16:35:24.564Z,98503.03
2022-08-11T16:38:12.510Z,98505.59
2022-08-11T16:40:40.333Z,98506.25
2022-08-11T16:43:30.800Z,98494.78
2022-08-11T16:46:37.647Z,98504.06
2022-08-11T16:49:07.587Z,98504.75
2022-08-11T16:51:34.580Z,98514.34
2022-08-11T16:54:05.757Z,98509.56
2022-08-11T16:56:47.979Z,98500.94
2022-08-11T16:59:26.368Z,98505.88
2022-08-11T17:02:02.351Z,98505.69
2022-08-11T17:04:48.242Z,98509.13
2022-08-11T17:07:42.337Z,98504.41
2022-08-11T17:11:14.184Z,98499.84
2022-08-11T17:13:47.533Z,98500.28
2022-08-11T17:16:20.249Z,98496.69
2022-08-11T17:18:51.543Z,98502.00
2022-08-11T17:21:21.086Z,98495.13
2022-08-11T17:23:52.765Z,98493.47
2022-08-11T17:26:26.798Z,98495.81
2022-08-11T17:28:59.297Z,98486.53
2022-08-11T17:31:47.566Z,98495.13
2022-08-11T17:34:33.906Z,98493.78
2022-08-11T17:37:01.664Z,98488.22
2022-08-11T17:39:30.753Z,98490.13
2022-08-11T17:42:19.094Z,98487.66
2022-08-11T17:45:05.449Z,98487.56
2022-08-11T17:47:53.369Z,98495.00
2022-08-11T17:50:21.172Z,98503.03
2022-08-11T17:53:08.183Z,98490.41
2022-08-11T17:55:57.780Z,98498.59
2022-08-11T17:58:45.203Z,98503.78
2022-08-11T18:01:12.842Z,98498.94
2022-08-11T18:03:41.787Z,98500.66
2022-08-11T18:06:21.145Z,98502.13
2022-08-11T18:09:22.943Z,98505.81
2022-08-11T18:12:12.705Z,98503.09
2022-08-11T18:15:02.738Z,98511.00
2022-08-11T18:17:48.160Z,98506.41
2022-08-11T18:20:33.638Z,98517.72
2022-08-11T18:23:21.951Z,98515.75
2022-08-11T18:26:29.724Z,98521.88
2022-08-11T18:29:17.604Z,98519.28
2022-08-11T18:32:07.010Z,98527.03
2022-08-11T18:34:59.134Z,98516.28
2022-08-11T18:37:49.688Z,98527.56
2022-08-11T18:40:45.683Z,98525.53
2022-08-11T18:43:33.896Z,98523.56
2022-08-11T18:46:23.407Z,98524.25
2022-08-11T18:49:15.578Z,98526.81
2022-08-11T18:52:06.861Z,98529.81
2022-08-11T18:54:56.207Z,98531.09
2022-08-11T18:57:49.647Z,98532.44
2022-08-11T19:00:42.029Z,98529.81
2022-08-11T19:03:30.971Z,98533.59
2022-08-11T19:06:39.724Z,98531.59
2022-08-11T19:09:28.747Z,98543.81
2022-08-11T19:12:15.263Z,98546.00
2022-08-11T19:15:03.195Z,98551.34
2022-08-11T19:17:51.419Z,98547.00
2022-08-11T19:20:40.842Z,98555.63
2022-08-11T19:23:29.615Z,98557.34
2022-08-11T19:26:16.461Z,98563.84
2022-08-11T19:29:06.575Z,98568.06
2022-08-11T19:31:53.178Z,98567.56
2022-08-11T19:34:41.693Z,98570.66
2022-08-11T19:37:29.843Z,98573.78
2022-08-11T19:40:24.581Z,98565.03
2022-08-11T19:43:18.613Z,98581.69
2022-08-11T19:46:15.766Z,98566.38
2022-08-11T19:49:03.831Z,98570.50
2022-08-11T19:51:53.469Z,98574.91
2022-08-11T19:54:43.552Z,98577.75
2022-08-11T19:57:30.079Z,98576.63
2022-08-11T20:00:16.956Z,98577.88
2022-08-11T20:03:08.738Z,98574.78
2022-08-11T20:05:59.633Z,98574.69
2022-08-11T20:08:48.201Z,98577.66
2022-08-11T20:11:34.695Z,98573.09
2022-08-11T20:14:21.848Z,98573.56
2022-08-11T20:17:07.196Z,98573.94
2022-08-11T20:19:57.201Z,98579.00
2022-08-11T20:22:48.697Z,98576.44
2022-08-11T20:25:36.672Z,98578.91
2022-08-11T20:28:24.420Z,98576.09
2022-08-11T20:31:11.315Z,98570.28
2022-08-11T20:33:57.995Z,98573.13
2022-08-11T20:36:44.581Z,98575.22
2022-08-11T20:39:34.253Z,98581.97
2022-08-11T20:42:21.202Z,98584.03
2022-08-11T20:45:08.194Z,98581.72
2022-08-11T20:47:59.419Z,98581.09
2022-08-11T20:50:46.402Z,98579.09
2022-08-11T20:53:35.618Z,98578.63
2022-08-11T20:56:28.609Z,98580.69
2022-08-11T20:59:18.875Z,98591.59
2022-08-11T21:02:09.617Z,98587.91
2022-08-11T21:04:57.748Z,98592.22
2022-08-11T21:07:56.816Z,98588.00
2022-08-11T21:10:53.726Z,98592.66
2022-08-11T21:13:42.714Z,98595.31
2022-08-11T21:16:35.357Z,98595.31
2022-08-11T21:19:59.799Z,98596.75
2022-08-11T21:22:58.640Z,98595.47
2022-08-11T21:25:49.056Z,98594.06
2022-08-11T21:28:38.714Z,98598.91
2022-08-11T21:31:27.271Z,98608.50
2022-08-11T21:34:14.436Z,98601.91
2022-08-11T21:37:02.398Z,98601.22
2022-08-11T21:39:49.486Z,98608.38
2022-08-11T21:42:39.782Z,98602.84
2022-08-11T21:45:27.911Z,98599.72
2022-08-11T21:48:15.214Z,98600.56
2022-08-11T21:51:01.079Z,98596.59
2022-08-11T21:53:46.836Z,98594.22
2022-08-11T21:56:33.280Z,98600.78
2022-08-11T21:59:20.765Z,98602.75
2022-08-11T22:02:12.908Z,98599.50
2022-08-11T22:04:59.935Z,98597.94
2022-08-11T22:07:46.948Z,98591.25
2022-08-11T22:10:42.042Z,98597.94
2022-08-11T22:13:31.999Z,98595.53
2022-08-11T22:16:20.978Z,98587.69
2022-08-11T22:19:09.583Z,98585.59
2022-08-11T22:22:02.809Z,98580.63
2022-08-11T22:24:51.346Z,98584.94
2022-08-11T22:27:37.010Z,98582.47
2022-08-11T22:30:25.320Z,98583.63
2022-08-11T22:33:11.782Z,98580.50
2022-08-11T22:36:01.578Z,98589.00
2022-08-11T22:38:47.436Z,98588.13
2022-08-11T22:41:32.808Z,98585.53
2022-08-11T22:44:18.095Z,98581.50
2022-08-11T22:47:03.970Z,98575.56
2022-08-11T22:49:58.134Z,98575.28
2022-08-11T22:52:46.304Z,98575.69
2022-08-11T22:55:33.245Z,98574.59
2022-08-11T22:58:21.145Z,98574.97
2022-08-11T23:01:08.065Z,98575.09
2022-08-11T23:03:54.974Z,98575.16
2022-08-11T23:06:41.348Z,98576.25
2022-08-11T23:09:27.841Z,98574.72
2022-08-11T23:12:13.797Z,98576.94
2022-08-11T23:15:00.107Z,98575.41
2022-08-11T23:17:46.406Z,98575.53
2022-08-11T23:20:36.147Z,98580.03
2022-08-11T23:23:40.467Z,98575.44
2022-08-11T23:26:26.238Z,98583.75
2022-08-11T23:29:14.914Z,98576.66
2022-08-11T23:32:00.830Z,98576.75
2022-08-11T23:35:03.513Z,98571.28
2022-08-11T23:37:51.231Z,98578.56
2022-08-11T23:40:37.244Z,98570.63
2022-08-11T23:43:23.099Z,98582.06
2022-08-11T23:46:08.509Z,98579.66
2022-08-11T23:48:55.918Z,98576.19
2022-08-11T23:51:42.156Z,98570.63
2022-08-11T23:54:31.607Z,98572.47
2022-08-11T23:57:22.008Z,98574.47
